sensor_id;sensor_type;location;lat;lon;timestamp;P1;durP1;ratioP1;P2;durP2;ratioP2
3601;SDS011;1815;50.950;6.920;2023-11-21T00:00:16;7.05;;;4.15;;
3601;SDS011;1815;50.950;6.920;2023-11-21T00:02:43;5.55;;;4.10;;
3601;SDS011;1815;50.950;6.920;2023-11-21T00:05:11;5.95;;;3.45;;
3601;SDS011;1815;50.950;6.920;2023-11-21T00:07:39;5.07;;;3.83;;
3601;SDS011;1815;50.950;6.920;2023-11-21T00:10:05;5.40;;;3.70;;
3601;SDS011;1815;50.950;6.920;2023-11-21T00:12:33;7.00;;;3.75;;
3601;SDS011;1815;50.950;6.920;2023-11-21T00:14:59;5.60;;;3.53;;
3601;SDS011;1815;50.950;6.920;2023-11-21T00:17:26;6.43;;;3.60;;
3601;SDS011;1815;50.950;6.920;2023-11-21T00:19:52;5.80;;;4.00;;
3601;SDS011;1815;50.950;6.920;2023-11-21T00:22:18;4.90;;;3.40;;
3601;SDS011;1815;50.950;6.920;2023-11-21T00:24:45;5.30;;;4.35;;
3601;SDS011;1815;50.950;6.920;2023-11-21T00:27:11;5.25;;;4.00;;
3601;SDS011;1815;50.950;6.920;2023-11-21T00:29:37;7.78;;;5.68;;
3601;SDS011;1815;50.950;6.920;2023-11-21T00:32:06;5.68;;;4.47;;
3601;SDS011;1815;50.950;6.920;2023-11-21T00:34:32;5.22;;;4.60;;
3601;SDS011;1815;50.950;6.920;2023-11-21T00:36:58;6.30;;;4.93;;
3601;SDS011;1815;50.950;6.920;2023-11-21T00:39:24;6.60;;;5.85;;
3601;SDS011;1815;50.950;6.920;2023-11-21T00:41:51;6.25;;;4.95;;
3601;SDS011;1815;50.950;6.920;2023-11-21T00:44:17;5.63;;;4.70;;
3601;SDS011;1815;50.950;6.920;2023-11-21T00:46:43;5.17;;;4.60;;
3601;SDS011;1815;50.950;6.920;2023-11-21T00:49:09;5.80;;;5.20;;
3601;SDS011;1815;50.950;6.920;2023-11-21T00:51:35;5.93;;;4.77;;
3601;SDS011;1815;50.950;6.920;2023-11-21T00:54:01;6.95;;;5.20;;
3601;SDS011;1815;50.950;6.920;2023-11-21T00:56:27;6.65;;;4.63;;
3601;SDS011;1815;50.950;6.920;2023-11-21T00:58:53;7.57;;;6.00;;
3601;SDS011;1815;50.950;6.920;2023-11-21T01:01:19;6.70;;;5.50;;
3601;SDS011;1815;50.950;6.920;2023-11-21T01:03:47;7.95;;;5.82;;
3601;SDS011;1815;50.950;6.920;2023-11-21T01:06:13;7.00;;;6.28;;
3601;SDS011;1815;50.950;6.920;2023-11-21T01:08:41;6.82;;;5.38;;
3601;SDS011;1815;50.950;6.920;2023-11-21T01:11:08;4.80;;;4.20;;
3601;SDS011;1815;50.950;6.920;2023-11-21T01:13:35;6.57;;;5.97;;
3601;SDS011;1815;50.950;6.920;2023-11-21T01:16:01;8.50;;;6.07;;
3601;SDS011;1815;50.950;6.920;2023-11-21T01:18:27;5.30;;;4.40;;
3601;SDS011;1815;50.950;6.920;2023-11-21T01:20:54;7.88;;;5.70;;
3601;SDS011;1815;50.950;6.920;2023-11-21T01:23:20;8.03;;;5.37;;
3601;SDS011;1815;50.950;6.920;2023-11-21T01:25:45;7.37;;;5.93;;
3601;SDS011;1815;50.950;6.920;2023-11-21T01:28:11;7.97;;;5.63;;
3601;SDS011;1815;50.950;6.920;2023-11-21T01:30:37;13.67;;;7.27;;
3601;SDS011;1815;50.950;6.920;2023-11-21T01:33:03;6.33;;;5.60;;
3601;SDS011;1815;50.950;6.920;2023-11-21T01:35:29;8.35;;;6.30;;
3601;SDS011;1815;50.950;6.920;2023-11-21T01:37:55;6.40;;;5.07;;
3601;SDS011;1815;50.950;6.920;2023-11-21T01:40:21;10.03;;;5.67;;
3601;SDS011;1815;50.950;6.920;2023-11-21T01:42:47;6.90;;;5.43;;
3601;SDS011;1815;50.950;6.920;2023-11-21T01:45:13;5.97;;;4.75;;
3601;SDS011;1815;50.950;6.920;2023-11-21T01:47:40;9.32;;;5.18;;
3601;SDS011;1815;50.950;6.920;2023-11-21T01:50:07;8.00;;;6.30;;
3601;SDS011;1815;50.950;6.920;2023-11-21T01:52:37;7.50;;;5.05;;
3601;SDS011;1815;50.950;6.920;2023-11-21T01:55:05;8.82;;;6.35;;
3601;SDS011;1815;50.950;6.920;2023-11-21T01:57:33;9.93;;;6.18;;
3601;SDS011;1815;50.950;6.920;2023-11-21T02:00:00;9.32;;;7.20;;
3601;SDS011;1815;50.950;6.920;2023-11-21T02:02:49;8.23;;;5.45;;
3601;SDS011;1815;50.950;6.920;2023-11-21T02:05:15;9.77;;;5.95;;
3601;SDS011;1815;50.950;6.920;2023-11-21T02:07:44;9.15;;;5.97;;
3601;SDS011;1815;50.950;6.920;2023-11-21T02:10:13;8.77;;;5.78;;
3601;SDS011;1815;50.950;6.920;2023-11-21T02:12:43;7.30;;;6.32;;
3601;SDS011;1815;50.950;6.920;2023-11-21T02:15:10;6.45;;;5.75;;
3601;SDS011;1815;50.950;6.920;2023-11-21T02:17:41;5.97;;;5.22;;
3601;SDS011;1815;50.950;6.920;2023-11-21T02:20:10;7.50;;;5.15;;
3601;SDS011;1815;50.950;6.920;2023-11-21T02:22:41;6.15;;;5.15;;
3601;SDS011;1815;50.950;6.920;2023-11-21T02:25:08;10.35;;;5.72;;
3601;SDS011;1815;50.950;6.920;2023-11-21T02:27:34;7.72;;;6.20;;
3601;SDS011;1815;50.950;6.920;2023-11-21T02:30:00;13.60;;;6.80;;
3601;SDS011;1815;50.950;6.920;2023-11-21T02:32:26;12.77;;;7.38;;
3601;SDS011;1815;50.950;6.920;2023-11-21T02:34:52;9.80;;;7.47;;
3601;SDS011;1815;50.950;6.920;2023-11-21T02:37:21;7.63;;;6.85;;
3601;SDS011;1815;50.950;6.920;2023-11-21T02:39:46;9.63;;;8.10;;
3601;SDS011;1815;50.950;6.920;2023-11-21T02:42:12;10.37;;;8.00;;
3601;SDS011;1815;50.950;6.920;2023-11-21T02:44:38;10.83;;;7.50;;
3601;SDS011;1815;50.950;6.920;2023-11-21T02:47:04;10.20;;;7.33;;
3601;SDS011;1815;50.950;6.920;2023-11-21T02:49:29;8.00;;;6.70;;
3601;SDS011;1815;50.950;6.920;2023-11-21T02:51:56;8.98;;;7.75;;
3601;SDS011;1815;50.950;6.920;2023-11-21T02:54:21;10.23;;;6.87;;
3601;SDS011;1815;50.950;6.920;2023-11-21T02:56:47;8.33;;;7.40;;
3601;SDS011;1815;50.950;6.920;2023-11-21T02:59:15;9.00;;;6.78;;
3601;SDS011;1815;50.950;6.920;2023-11-21T03:01:41;7.95;;;6.82;;
3601;SDS011;1815;50.950;6.920;2023-11-21T03:04:07;8.88;;;6.63;;
3601;SDS011;1815;50.950;6.920;2023-11-21T03:06:33;9.20;;;7.80;;
3601;SDS011;1815;50.950;6.920;2023-11-21T03:08:59;10.90;;;6.83;;
3601;SDS011;1815;50.950;6.920;2023-11-21T03:11:24;14.20;;;7.90;;
3601;SDS011;1815;50.950;6.920;2023-11-21T03:13:50;9.63;;;8.27;;
3601;SDS011;1815;50.950;6.920;2023-11-21T03:16:17;12.57;;;7.82;;
3601;SDS011;1815;50.950;6.920;2023-11-21T03:18:45;10.20;;;7.20;;
3601;SDS011;1815;50.950;6.920;2023-11-21T03:21:11;9.13;;;7.13;;
3601;SDS011;1815;50.950;6.920;2023-11-21T03:23:38;11.23;;;8.13;;
3601;SDS011;1815;50.950;6.920;2023-11-21T03:26:03;8.90;;;7.40;;
3601;SDS011;1815;50.950;6.920;2023-11-21T03:28:29;10.43;;;9.05;;
3601;SDS011;1815;50.950;6.920;2023-11-21T03:30:56;8.25;;;7.45;;
3601;SDS011;1815;50.950;6.920;2023-11-21T03:33:23;14.32;;;8.20;;
3601;SDS011;1815;50.950;6.920;2023-11-21T03:35:48;7.80;;;7.00;;
3601;SDS011;1815;50.950;6.920;2023-11-21T03:38:14;10.97;;;8.10;;
3601;SDS011;1815;50.950;6.920;2023-11-21T03:40:41;13.38;;;8.93;;
3601;SDS011;1815;50.950;6.920;2023-11-21T03:43:07;9.65;;;7.75;;
3601;SDS011;1815;50.950;6.920;2023-11-21T03:45:32;9.80;;;8.80;;
3601;SDS011;1815;50.950;6.920;2023-11-21T03:47:58;9.30;;;8.07;;
3601;SDS011;1815;50.950;6.920;2023-11-21T03:50:30;12.20;;;8.95;;
3601;SDS011;1815;50.950;6.920;2023-11-21T03:52:56;9.38;;;8.05;;
3601;SDS011;1815;50.950;6.920;2023-11-21T03:55:22;7.23;;;6.53;;
3601;SDS011;1815;50.950;6.920;2023-11-21T03:57:51;9.77;;;7.30;;
3601;SDS011;1815;50.950;6.920;2023-11-21T04:00:19;7.97;;;7.00;;
3601;SDS011;1815;50.950;6.920;2023-11-21T04:02:46;7.78;;;6.97;;
3601;SDS011;1815;50.950;6.920;2023-11-21T04:05:11;11.30;;;8.90;;
3601;SDS011;1815;50.950;6.920;2023-11-21T04:07:37;14.23;;;8.97;;
3601;SDS011;1815;50.950;6.920;2023-11-21T04:10:04;10.20;;;7.53;;
3601;SDS011;1815;50.950;6.920;2023-11-21T04:12:33;13.23;;;8.20;;
3601;SDS011;1815;50.950;6.920;2023-11-21T04:14:59;12.70;;;8.27;;
3601;SDS011;1815;50.950;6.920;2023-11-21T04:17:26;11.65;;;8.35;;
3601;SDS011;1815;50.950;6.920;2023-11-21T04:19:51;9.40;;;8.47;;
3601;SDS011;1815;50.950;6.920;2023-11-21T04:22:17;11.83;;;9.30;;
3601;SDS011;1815;50.950;6.920;2023-11-21T04:24:43;11.83;;;8.60;;
3601;SDS011;1815;50.950;6.920;2023-11-21T04:27:08;10.27;;;9.13;;
3601;SDS011;1815;50.950;6.920;2023-11-21T04:29:34;13.07;;;8.57;;
3601;SDS011;1815;50.950;6.920;2023-11-21T04:32:00;13.50;;;9.60;;
3601;SDS011;1815;50.950;6.920;2023-11-21T04:34:28;11.00;;;9.40;;
3601;SDS011;1815;50.950;6.920;2023-11-21T04:36:56;11.48;;;9.82;;
3601;SDS011;1815;50.950;6.920;2023-11-21T04:39:22;9.50;;;8.30;;
3601;SDS011;1815;50.950;6.920;2023-11-21T04:41:48;12.77;;;9.93;;
3601;SDS011;1815;50.950;6.920;2023-11-21T04:44:15;12.07;;;9.70;;
3601;SDS011;1815;50.950;6.920;2023-11-21T04:46:41;11.98;;;8.38;;
3601;SDS011;1815;50.950;6.920;2023-11-21T04:49:07;14.47;;;10.33;;
3601;SDS011;1815;50.950;6.920;2023-11-21T04:51:33;12.43;;;9.43;;
3601;SDS011;1815;50.950;6.920;2023-11-21T04:53:58;11.20;;;8.80;;
3601;SDS011;1815;50.950;6.920;2023-11-21T04:56:24;16.63;;;9.80;;
3601;SDS011;1815;50.950;6.920;2023-11-21T04:58:50;11.60;;;9.33;;
3601;SDS011;1815;50.950;6.920;2023-11-21T05:01:16;16.17;;;9.20;;
3601;SDS011;1815;50.950;6.920;2023-11-21T05:03:41;12.80;;;10.13;;
3601;SDS011;1815;50.950;6.920;2023-11-21T05:06:09;12.70;;;8.20;;
3601;SDS011;1815;50.950;6.920;2023-11-21T05:08:35;11.70;;;9.75;;
3601;SDS011;1815;50.950;6.920;2023-11-21T05:11:02;12.65;;;9.90;;
3601;SDS011;1815;50.950;6.920;2023-11-21T05:13:28;11.88;;;9.65;;
3601;SDS011;1815;50.950;6.920;2023-11-21T05:15:54;11.07;;;9.37;;
3601;SDS011;1815;50.950;6.920;2023-11-21T05:18:22;11.80;;;8.77;;
3601;SDS011;1815;50.950;6.920;2023-11-21T05:20:48;14.00;;;9.90;;
3601;SDS011;1815;50.950;6.920;2023-11-21T05:23:13;11.80;;;8.80;;
3601;SDS011;1815;50.950;6.920;2023-11-21T05:25:39;13.00;;;8.73;;
3601;SDS011;1815;50.950;6.920;2023-11-21T05:28:06;12.20;;;9.70;;
3601;SDS011;1815;50.950;6.920;2023-11-21T05:30:32;10.43;;;8.53;;
3601;SDS011;1815;50.950;6.920;2023-11-21T05:32:58;9.80;;;8.67;;
3601;SDS011;1815;50.950;6.920;2023-11-21T05:35:23;11.50;;;8.57;;
3601;SDS011;1815;50.950;6.920;2023-11-21T05:37:49;9.80;;;8.43;;
3601;SDS011;1815;50.950;6.920;2023-11-21T05:40:15;13.40;;;8.73;;
3601;SDS011;1815;50.950;6.920;2023-11-21T05:42:41;10.00;;;8.53;;
3601;SDS011;1815;50.950;6.920;2023-11-21T05:45:07;17.25;;;9.30;;
3601;SDS011;1815;50.950;6.920;2023-11-21T05:47:37;10.90;;;8.75;;
3601;SDS011;1815;50.950;6.920;2023-11-21T05:50:05;11.48;;;9.65;;
3601;SDS011;1815;50.950;6.920;2023-11-21T05:52:35;13.57;;;9.13;;
3601;SDS011;1815;50.950;6.920;2023-11-21T05:55:02;15.80;;;9.50;;
3601;SDS011;1815;50.950;6.920;2023-11-21T05:57:30;11.18;;;8.68;;
3601;SDS011;1815;50.950;6.920;2023-11-21T05:59:55;9.10;;;7.63;;
3601;SDS011;1815;50.950;6.920;2023-11-21T06:02:21;13.20;;;8.90;;
3601;SDS011;1815;50.950;6.920;2023-11-21T06:04:47;9.67;;;8.00;;
3601;SDS011;1815;50.950;6.920;2023-11-21T06:07:12;10.00;;;8.23;;
3601;SDS011;1815;50.950;6.920;2023-11-21T06:09:38;10.27;;;8.20;;
3601;SDS011;1815;50.950;6.920;2023-11-21T06:12:04;12.90;;;8.90;;
3601;SDS011;1815;50.950;6.920;2023-11-21T06:14:30;11.13;;;8.27;;
3601;SDS011;1815;50.950;6.920;2023-11-21T06:16:58;11.82;;;8.10;;
3601;SDS011;1815;50.950;6.920;2023-11-21T06:19:24;10.27;;;8.90;;
3601;SDS011;1815;50.950;6.920;2023-11-21T06:21:49;12.60;;;10.00;;
3601;SDS011;1815;50.950;6.920;2023-11-21T06:24:15;12.70;;;8.50;;
3601;SDS011;1815;50.950;6.920;2023-11-21T06:26:42;13.15;;;8.75;;
3601;SDS011;1815;50.950;6.920;2023-11-21T06:29:09;9.88;;;8.20;;
3601;SDS011;1815;50.950;6.920;2023-11-21T06:31:36;15.48;;;9.73;;
3601;SDS011;1815;50.950;6.920;2023-11-21T06:34:02;12.07;;;8.87;;
3601;SDS011;1815;50.950;6.920;2023-11-21T06:36:28;13.10;;;8.50;;
3601;SDS011;1815;50.950;6.920;2023-11-21T06:38:54;12.93;;;8.50;;
3601;SDS011;1815;50.950;6.920;2023-11-21T06:41:20;13.52;;;8.20;;
3601;SDS011;1815;50.950;6.920;2023-11-21T06:43:45;11.80;;;10.10;;
3601;SDS011;1815;50.950;6.920;2023-11-21T06:46:12;12.57;;;9.23;;
3601;SDS011;1815;50.950;6.920;2023-11-21T06:48:40;14.45;;;10.90;;
3601;SDS011;1815;50.950;6.920;2023-11-21T06:51:09;12.02;;;9.75;;
3601;SDS011;1815;50.950;6.920;2023-11-21T06:53:36;13.13;;;9.13;;
3601;SDS011;1815;50.950;6.920;2023-11-21T06:56:02;12.85;;;9.48;;
3601;SDS011;1815;50.950;6.920;2023-11-21T06:58:28;14.18;;;10.63;;
3601;SDS011;1815;50.950;6.920;2023-11-21T07:00:54;16.67;;;10.40;;
3601;SDS011;1815;50.950;6.920;2023-11-21T07:03:19;14.00;;;10.97;;
3601;SDS011;1815;50.950;6.920;2023-11-21T07:05:45;14.07;;;10.20;;
3601;SDS011;1815;50.950;6.920;2023-11-21T07:08:11;17.70;;;10.03;;
3601;SDS011;1815;50.950;6.920;2023-11-21T07:10:37;20.08;;;14.38;;
3601;SDS011;1815;50.950;6.920;2023-11-21T07:13:03;15.07;;;11.50;;
3601;SDS011;1815;50.950;6.920;2023-11-21T07:15:29;13.80;;;11.73;;
3601;SDS011;1815;50.950;6.920;2023-11-21T07:17:55;21.93;;;12.80;;
3601;SDS011;1815;50.950;6.920;2023-11-21T07:20:21;16.90;;;12.67;;
3601;SDS011;1815;50.950;6.920;2023-11-21T07:22:47;15.48;;;13.18;;
3601;SDS011;1815;50.950;6.920;2023-11-21T07:25:13;14.77;;;11.57;;
3601;SDS011;1815;50.950;6.920;2023-11-21T07:27:38;15.97;;;11.50;;
3601;SDS011;1815;50.950;6.920;2023-11-21T07:30:04;15.70;;;12.43;;
3601;SDS011;1815;50.950;6.920;2023-11-21T07:32:33;19.92;;;14.00;;
3601;SDS011;1815;50.950;6.920;2023-11-21T07:34:59;18.70;;;13.52;;
3601;SDS011;1815;50.950;6.920;2023-11-21T07:37:26;16.92;;;11.88;;
3601;SDS011;1815;50.950;6.920;2023-11-21T07:39:55;19.60;;;14.93;;
3601;SDS011;1815;50.950;6.920;2023-11-21T07:42:23;18.60;;;14.57;;
3601;SDS011;1815;50.950;6.920;2023-11-21T07:44:51;17.40;;;12.32;;
3601;SDS011;1815;50.950;6.920;2023-11-21T07:47:17;18.20;;;14.30;;
3601;SDS011;1815;50.950;6.920;2023-11-21T07:49:43;18.50;;;14.57;;
3601;SDS011;1815;50.950;6.920;2023-11-21T07:52:10;17.20;;;14.37;;
3601;SDS011;1815;50.950;6.920;2023-11-21T07:54:37;21.93;;;15.30;;
3601;SDS011;1815;50.950;6.920;2023-11-21T07:57:03;20.00;;;14.60;;
3601;SDS011;1815;50.950;6.920;2023-11-21T07:59:29;24.70;;;15.13;;
3601;SDS011;1815;50.950;6.920;2023-11-21T08:01:57;19.50;;;13.70;;
3601;SDS011;1815;50.950;6.920;2023-11-21T08:04:23;20.30;;;13.98;;
3601;SDS011;1815;50.950;6.920;2023-11-21T08:06:49;18.30;;;13.57;;
3601;SDS011;1815;50.950;6.920;2023-11-21T08:09:14;20.20;;;14.07;;
3601;SDS011;1815;50.950;6.920;2023-11-21T08:11:42;17.05;;;13.00;;
3601;SDS011;1815;50.950;6.920;2023-11-21T08:14:08;19.60;;;14.00;;
3601;SDS011;1815;50.950;6.920;2023-11-21T08:16:33;18.27;;;12.37;;
3601;SDS011;1815;50.950;6.920;2023-11-21T08:18:59;18.27;;;13.40;;
3601;SDS011;1815;50.950;6.920;2023-11-21T08:21:26;22.25;;;12.75;;
3601;SDS011;1815;50.950;6.920;2023-11-21T08:23:54;16.98;;;13.70;;
3601;SDS011;1815;50.950;6.920;2023-11-21T08:26:20;19.60;;;13.80;;
3601;SDS011;1815;50.950;6.920;2023-11-21T08:28:47;21.15;;;13.98;;
3601;SDS011;1815;50.950;6.920;2023-11-21T08:31:13;18.73;;;14.70;;
3601;SDS011;1815;50.950;6.920;2023-11-21T08:33:39;19.30;;;16.30;;
3601;SDS011;1815;50.950;6.920;2023-11-21T08:36:08;16.30;;;13.80;;
3601;SDS011;1815;50.950;6.920;2023-11-21T08:38:35;19.52;;;14.73;;
3601;SDS011;1815;50.950;6.920;2023-11-21T08:41:04;20.73;;;14.10;;
3601;SDS011;1815;50.950;6.920;2023-11-21T08:43:34;19.80;;;14.53;;
3601;SDS011;1815;50.950;6.920;2023-11-21T08:46:06;15.63;;;12.33;;
3601;SDS011;1815;50.950;6.920;2023-11-21T08:48:34;20.53;;;13.33;;
3601;SDS011;1815;50.950;6.920;2023-11-21T08:51:01;19.00;;;14.00;;
3601;SDS011;1815;50.950;6.920;2023-11-21T08:53:27;19.60;;;14.90;;
3601;SDS011;1815;50.950;6.920;2023-11-21T08:55:52;18.57;;;14.30;;
3601;SDS011;1815;50.950;6.920;2023-11-21T08:58:19;22.40;;;14.63;;
3601;SDS011;1815;50.950;6.920;2023-11-21T09:00:45;20.50;;;14.80;;
3601;SDS011;1815;50.950;6.920;2023-11-21T09:03:11;27.47;;;16.27;;
3601;SDS011;1815;50.950;6.920;2023-11-21T09:05:38;20.58;;;15.50;;
3601;SDS011;1815;50.950;6.920;2023-11-21T09:08:04;16.83;;;13.52;;
3601;SDS011;1815;50.950;6.920;2023-11-21T09:10:30;23.60;;;16.23;;
3601;SDS011;1815;50.950;6.920;2023-11-21T09:12:57;20.93;;;15.80;;
3601;SDS011;1815;50.950;6.920;2023-11-21T09:15:24;23.20;;;15.80;;
3601;SDS011;1815;50.950;6.920;2023-11-21T09:17:50;24.97;;;16.37;;
3601;SDS011;1815;50.950;6.920;2023-11-21T09:20:16;23.70;;;16.87;;
3601;SDS011;1815;50.950;6.920;2023-11-21T09:22:43;23.13;;;16.97;;
3601;SDS011;1815;50.950;6.920;2023-11-21T09:25:10;20.90;;;14.87;;
3601;SDS011;1815;50.950;6.920;2023-11-21T09:27:36;26.60;;;17.03;;
3601;SDS011;1815;50.950;6.920;2023-11-21T09:30:01;18.70;;;14.27;;
3601;SDS011;1815;50.950;6.920;2023-11-21T09:32:30;25.97;;;16.30;;
3601;SDS011;1815;50.950;6.920;2023-11-21T09:34:56;21.50;;;15.60;;
3601;SDS011;1815;50.950;6.920;2023-11-21T09:37:23;24.27;;;15.17;;
3601;SDS011;1815;50.950;6.920;2023-11-21T09:39:49;21.00;;;14.95;;
3601;SDS011;1815;50.950;6.920;2023-11-21T09:42:15;20.27;;;15.30;;
3601;SDS011;1815;50.950;6.920;2023-11-21T09:45:02;20.70;;;13.27;;
3601;SDS011;1815;50.950;6.920;2023-11-21T09:47:34;22.63;;;15.53;;
3601;SDS011;1815;50.950;6.920;2023-11-21T09:50:03;20.77;;;15.17;;
3601;SDS011;1815;50.950;6.920;2023-11-21T09:52:29;18.30;;;14.27;;
3601;SDS011;1815;50.950;6.920;2023-11-21T09:54:57;19.30;;;13.00;;
3601;SDS011;1815;50.950;6.920;2023-11-21T09:57:24;21.40;;;13.87;;
3601;SDS011;1815;50.950;6.920;2023-11-21T09:59:51;21.83;;;14.80;;
3601;SDS011;1815;50.950;6.920;2023-11-21T10:02:24;19.88;;;11.30;;
3601;SDS011;1815;50.950;6.920;2023-11-21T10:04:54;14.67;;;11.47;;
3601;SDS011;1815;50.950;6.920;2023-11-21T10:07:21;20.93;;;15.07;;
3601;SDS011;1815;50.950;6.920;2023-11-21T10:09:48;20.40;;;12.40;;
3601;SDS011;1815;50.950;6.920;2023-11-21T10:12:16;16.90;;;11.83;;
3601;SDS011;1815;50.950;6.920;2023-11-21T10:14:43;14.50;;;9.70;;
3601;SDS011;1815;50.950;6.920;2023-11-21T10:17:12;23.50;;;16.03;;
3601;SDS011;1815;50.950;6.920;2023-11-21T10:19:41;17.47;;;14.10;;
3601;SDS011;1815;50.950;6.920;2023-11-21T10:22:08;18.27;;;11.60;;
3601;SDS011;1815;50.950;6.920;2023-11-21T10:24:34;21.70;;;12.77;;
3601;SDS011;1815;50.950;6.920;2023-11-21T10:27:02;18.93;;;14.10;;
3601;SDS011;1815;50.950;6.920;2023-11-21T10:29:29;25.70;;;14.10;;
3601;SDS011;1815;50.950;6.920;2023-11-21T10:31:55;21.97;;;14.30;;
3601;SDS011;1815;50.950;6.920;2023-11-21T10:34:24;22.07;;;15.70;;
3601;SDS011;1815;50.950;6.920;2023-11-21T10:36:52;22.17;;;13.80;;
3601;SDS011;1815;50.950;6.920;2023-11-21T10:39:18;23.43;;;13.43;;
3601;SDS011;1815;50.950;6.920;2023-11-21T10:41:49;20.87;;;14.93;;
3601;SDS011;1815;50.950;6.920;2023-11-21T10:44:16;19.70;;;13.20;;
3601;SDS011;1815;50.950;6.920;2023-11-21T10:46:48;22.70;;;13.63;;
3601;SDS011;1815;50.950;6.920;2023-11-21T10:49:22;20.70;;;11.67;;
3601;SDS011;1815;50.950;6.920;2023-11-21T10:51:50;19.50;;;13.63;;
3601;SDS011;1815;50.950;6.920;2023-11-21T10:54:21;20.13;;;12.90;;
3601;SDS011;1815;50.950;6.920;2023-11-21T10:56:49;19.50;;;14.20;;
3601;SDS011;1815;50.950;6.920;2023-11-21T10:59:16;19.50;;;12.63;;
3601;SDS011;1815;50.950;6.920;2023-11-21T11:01:46;20.47;;;13.50;;
3601;SDS011;1815;50.950;6.920;2023-11-21T11:04:15;21.43;;;14.13;;
3601;SDS011;1815;50.950;6.920;2023-11-21T11:06:43;16.93;;;10.70;;
3601;SDS011;1815;50.950;6.920;2023-11-21T11:09:12;20.13;;;12.57;;
3601;SDS011;1815;50.950;6.920;2023-11-21T11:11:41;20.70;;;11.37;;
3601;SDS011;1815;50.950;6.920;2023-11-21T11:14:12;16.07;;;10.77;;
3601;SDS011;1815;50.950;6.920;2023-11-21T11:16:39;18.53;;;11.43;;
3601;SDS011;1815;50.950;6.920;2023-11-21T11:19:09;16.67;;;12.50;;
3601;SDS011;1815;50.950;6.920;2023-11-21T11:24:44;17.93;;;11.57;;
3601;SDS011;1815;50.950;6.920;2023-11-21T11:32:51;21.33;;;15.20;;
3601;SDS011;1815;50.950;6.920;2023-11-21T11:38:39;19.20;;;12.40;;
3601;SDS011;1815;50.950;6.920;2023-11-21T11:41:11;18.90;;;11.17;;
3601;SDS011;1815;50.950;6.920;2023-11-21T11:43:37;20.83;;;13.67;;
3601;SDS011;1815;50.950;6.920;2023-11-21T11:46:12;20.40;;;10.87;;
3601;SDS011;1815;50.950;6.920;2023-11-21T11:48:38;19.30;;;11.27;;
3601;SDS011;1815;50.950;6.920;2023-11-21T11:51:14;17.63;;;9.80;;
3601;SDS011;1815;50.950;6.920;2023-11-21T11:53:42;15.20;;;9.50;;
3601;SDS011;1815;50.950;6.920;2023-11-21T11:56:29;17.10;;;10.80;;
3601;SDS011;1815;50.950;6.920;2023-11-21T11:59:00;16.87;;;10.93;;
3601;SDS011;1815;50.950;6.920;2023-11-21T12:01:31;20.17;;;11.50;;
3601;SDS011;1815;50.950;6.920;2023-11-21T12:06:39;17.00;;;13.47;;
3601;SDS011;1815;50.950;6.920;2023-11-21T12:09:07;17.90;;;11.60;;
3601;SDS011;1815;50.950;6.920;2023-11-21T12:11:45;21.03;;;13.80;;
3601;SDS011;1815;50.950;6.920;2023-11-21T12:14:12;18.57;;;12.63;;
3601;SDS011;1815;50.950;6.920;2023-11-21T12:16:39;18.90;;;12.57;;
3601;SDS011;1815;50.950;6.920;2023-11-21T12:19:04;16.03;;;11.00;;
3601;SDS011;1815;50.950;6.920;2023-11-21T12:21:30;16.40;;;11.90;;
3601;SDS011;1815;50.950;6.920;2023-11-21T12:23:57;21.57;;;11.60;;
3601;SDS011;1815;50.950;6.920;2023-11-21T12:26:26;17.25;;;10.65;;
3601;SDS011;1815;50.950;6.920;2023-11-21T12:28:53;17.50;;;11.60;;
3601;SDS011;1815;50.950;6.920;2023-11-21T12:31:22;15.30;;;10.40;;
3601;SDS011;1815;50.950;6.920;2023-11-21T12:33:48;20.37;;;11.50;;
3601;SDS011;1815;50.950;6.920;2023-11-21T12:36:14;14.83;;;10.47;;
3601;SDS011;1815;50.950;6.920;2023-11-21T12:38:41;16.83;;;11.20;;
3601;SDS011;1815;50.950;6.920;2023-11-21T12:41:07;14.17;;;8.90;;
3601;SDS011;1815;50.950;6.920;2023-11-21T12:43:34;17.20;;;11.20;;
3601;SDS011;1815;50.950;6.920;2023-11-21T12:46:05;17.70;;;11.53;;
3601;SDS011;1815;50.950;6.920;2023-11-21T12:48:38;20.27;;;13.50;;
3601;SDS011;1815;50.950;6.920;2023-11-21T12:51:07;27.77;;;14.63;;
3601;SDS011;1815;50.950;6.920;2023-11-21T12:53:33;25.53;;;14.77;;
3601;SDS011;1815;50.950;6.920;2023-11-21T12:56:07;19.50;;;14.00;;
3601;SDS011;1815;50.950;6.920;2023-11-21T12:58:38;25.77;;;15.40;;
3601;SDS011;1815;50.950;6.920;2023-11-21T13:01:10;24.07;;;15.33;;
3601;SDS011;1815;50.950;6.920;2023-11-21T13:03:39;20.83;;;15.00;;
3601;SDS011;1815;50.950;6.920;2023-11-21T13:06:05;22.03;;;15.90;;
3601;SDS011;1815;50.950;6.920;2023-11-21T13:08:32;26.37;;;17.67;;
3601;SDS011;1815;50.950;6.920;2023-11-21T13:10:59;26.57;;;16.63;;
3601;SDS011;1815;50.950;6.920;2023-11-21T13:13:28;24.37;;;15.47;;
3601;SDS011;1815;50.950;6.920;2023-11-21T13:15:55;29.60;;;18.07;;
3601;SDS011;1815;50.950;6.920;2023-11-21T13:18:25;25.27;;;16.10;;
3601;SDS011;1815;50.950;6.920;2023-11-21T13:20:52;31.97;;;17.47;;
3601;SDS011;1815;50.950;6.920;2023-11-21T13:23:23;22.40;;;15.10;;
3601;SDS011;1815;50.950;6.920;2023-11-21T13:25:49;24.17;;;16.20;;
3601;SDS011;1815;50.950;6.920;2023-11-21T13:28:15;27.33;;;16.90;;
3601;SDS011;1815;50.950;6.920;2023-11-21T13:30:43;24.97;;;16.80;;
3601;SDS011;1815;50.950;6.920;2023-11-21T13:33:09;23.83;;;14.07;;
3601;SDS011;1815;50.950;6.920;2023-11-21T13:35:42;23.00;;;16.00;;
3601;SDS011;1815;50.950;6.920;2023-11-21T13:38:16;23.83;;;17.60;;
3601;SDS011;1815;50.950;6.920;2023-11-21T13:40:52;25.83;;;16.90;;
3601;SDS011;1815;50.950;6.920;2023-11-21T13:43:19;29.67;;;17.87;;
3601;SDS011;1815;50.950;6.920;2023-11-21T13:45:47;26.17;;;17.70;;
3601;SDS011;1815;50.950;6.920;2023-11-21T13:48:23;25.83;;;18.77;;
3601;SDS011;1815;50.950;6.920;2023-11-21T13:51:07;21.30;;;16.90;;
3601;SDS011;1815;50.950;6.920;2023-11-21T13:53:45;21.13;;;15.53;;
3601;SDS011;1815;50.950;6.920;2023-11-21T13:56:17;26.20;;;17.47;;
3601;SDS011;1815;50.950;6.920;2023-11-21T13:58:49;26.80;;;17.30;;
3601;SDS011;1815;50.950;6.920;2023-11-21T14:01:19;27.57;;;17.00;;
3601;SDS011;1815;50.950;6.920;2023-11-21T14:04:09;28.47;;;18.77;;
3601;SDS011;1815;50.950;6.920;2023-11-21T14:06:43;24.80;;;16.60;;
3601;SDS011;1815;50.950;6.920;2023-11-21T14:09:23;19.73;;;13.93;;
3601;SDS011;1815;50.950;6.920;2023-11-21T14:11:58;25.30;;;16.00;;
3601;SDS011;1815;50.950;6.920;2023-11-21T14:14:25;30.30;;;16.60;;
3601;SDS011;1815;50.950;6.920;2023-11-21T14:16:54;25.50;;;15.70;;
3601;SDS011;1815;50.950;6.920;2023-11-21T14:19:23;25.27;;;13.93;;
3601;SDS011;1815;50.950;6.920;2023-11-21T14:21:55;21.40;;;13.10;;
3601;SDS011;1815;50.950;6.920;2023-11-21T14:24:23;21.57;;;14.23;;
3601;SDS011;1815;50.950;6.920;2023-11-21T14:26:49;21.33;;;12.93;;
3601;SDS011;1815;50.950;6.920;2023-11-21T14:29:16;23.80;;;13.80;;
3601;SDS011;1815;50.950;6.920;2023-11-21T14:31:45;25.70;;;14.30;;
3601;SDS011;1815;50.950;6.920;2023-11-21T14:34:11;19.17;;;12.97;;
3601;SDS011;1815;50.950;6.920;2023-11-21T14:36:38;18.77;;;13.50;;
3601;SDS011;1815;50.950;6.920;2023-11-21T14:39:08;20.97;;;12.67;;
3601;SDS011;1815;50.950;6.920;2023-11-21T14:41:41;22.80;;;13.60;;
3601;SDS011;1815;50.950;6.920;2023-11-21T14:44:08;22.07;;;12.10;;
3601;SDS011;1815;50.950;6.920;2023-11-21T14:46:37;25.47;;;13.73;;
3601;SDS011;1815;50.950;6.920;2023-11-21T14:49:04;26.87;;;14.43;;
3601;SDS011;1815;50.950;6.920;2023-11-21T14:51:49;18.20;;;12.30;;
3601;SDS011;1815;50.950;6.920;2023-11-21T14:54:29;17.17;;;10.13;;
3601;SDS011;1815;50.950;6.920;2023-11-21T14:57:08;22.93;;;11.80;;
3601;SDS011;1815;50.950;6.920;2023-11-21T14:59:46;15.93;;;11.00;;
3601;SDS011;1815;50.950;6.920;2023-11-21T15:02:17;21.63;;;11.10;;
3601;SDS011;1815;50.950;6.920;2023-11-21T15:05:05;20.53;;;11.27;;
3601;SDS011;1815;50.950;6.920;2023-11-21T15:07:33;22.83;;;11.33;;
3601;SDS011;1815;50.950;6.920;2023-11-21T15:09:59;20.10;;;11.83;;
3601;SDS011;1815;50.950;6.920;2023-11-21T15:12:25;15.77;;;10.60;;
3601;SDS011;1815;50.950;6.920;2023-11-21T15:14:56;14.37;;;10.10;;